Time;durP1;ratioP1;P1;durP2;ratioP2;P2;SDS_P1;SDS_P2;PMS_P1;PMS_P2;Temp;Humidity;BMP_temperature;BMP_pressure;BME280_temperature;BME280_humidity;BME280_pressure;Samples;Min_cycle;Max_cycle;Signal;HPM_P1;HPM_P2
2021/05/06 00:14:51;;;;;;;12.30;7.57;;;6.80;99.90;;;;;;5033812;28;20230;-78
2021/05/06 00:32:58;;;;;;;9.90;6.87;;;6.50;99.90;;;;;;5056489;28;20198;-77
2021/05/06 00:35:43;;;;;;;11.07;7.30;;;6.50;99.90;;;;;;5069728;28;20198;-77
2021/05/06 00:38:30;;;;;;;10.40;8.07;;;6.40;99.90;;;;;;5073688;28;20717;-77
2021/05/06 00:41:32;;;;;;;13.43;8.73;;;6.40;99.90;;;;;;5059006;28;20229;-77
2021/05/06 00:59:56;;;;;;;14.30;10.13;;;6.30;99.90;;;;;;5066815;28;20218;-78
2021/05/06 01:02:54;;;;;;;15.53;10.53;;;6.30;99.90;;;;;;5065832;28;20237;-77
2021/05/06 01:05:40;;;;;;;14.20;8.63;;;6.20;99.90;;;;;;5064596;28;20233;-78
2021/05/06 01:08:27;;;;;;;13.17;8.90;;;6.20;99.90;;;;;;5072628;28;20289;-77
2021/05/06 01:11:19;;;;;;;13.90;7.83;;;6.20;99.90;;;;;;5068411;28;20253;-78
2021/05/06 01:14:08;;;;;;;12.83;9.73;;;6.10;99.90;;;;;;5066054;28;20682;-78
2021/05/06 01:16:53;;;;;;;13.83;8.90;;;6.10;99.90;;;;;;5074685;28;20193;-77
2021/05/06 01:19:38;;;;;;;14.60;9.30;;;6.10;99.90;;;;;;5071557;28;20218;-78
2021/05/06 01:22:24;;;;;;;13.03;9.43;;;6.10;99.90;;;;;;5062725;28;20241;-78
2021/05/06 01:25:10;;;;;;;12.33;9.00;;;6.10;99.90;;;;;;5068007;28;20798;-77
2021/05/06 01:28:00;;;;;;;12.37;9.10;;;6.10;99.90;;;;;;5070295;28;20356;-77
2021/05/06 01:30:49;;;;;;;15.23;10.63;;;6.00;99.90;;;;;;5071460;28;20293;-77
2021/05/06 01:33:38;;;;;;;13.53;10.13;;;6.00;99.90;;;;;;5072633;28;20201;-78
2021/05/06 01:36:25;;;;;;;13.23;10.00;;;6.00;99.90;;;;;;5072311;28;20194;-78
2021/05/06 01:39:35;;;;;;;14.77;10.60;;;6.00;99.90;;;;;;5076850;28;20270;-77
2021/05/06 01:42:22;;;;;;;13.47;10.50;;;6.00;99.90;;;;;;5093016;28;20252;-77
2021/05/06 01:48:15;;;;;;;13.77;9.73;;;6.00;99.90;;;;;;5072500;28;20621;-78
2021/05/06 01:57:26;;;;;;;15.23;10.47;;;6.00;99.90;;;;;;5070294;28;20280;-77
2021/05/06 01:57:36;;;;;;;13.03;10.27;;;6.00;99.90;;;;;;5060970;28;20213;-78
2021/05/06 02:00:23;;;;;;;13.83;10.23;;;6.00;99.90;;;;;;5069483;28;20221;-78
2021/05/06 02:03:08;;;;;;;16.20;11.23;;;6.00;99.90;;;;;;5071938;28;20681;-77
2021/05/06 02:05:53;;;;;;;14.07;9.43;;;6.00;99.90;;;;;;5072932;28;20205;-78
2021/05/06 02:08:39;;;;;;;15.50;10.97;;;6.00;99.90;;;;;;5069788;28;20615;-77
2021/05/06 02:11:24;;;;;;;13.40;9.97;;;6.00;99.90;;;;;;5072288;28;20218;-78
2021/05/06 02:14:09;;;;;;;15.83;10.27;;;6.00;99.90;;;;;;5060459;28;20201;-77
2021/05/06 02:16:54;;;;;;;13.33;8.87;;;6.00;99.90;;;;;;5065757;28;20336;-77
2021/05/06 02:19:44;;;;;;;14.00;9.53;;;6.10;99.90;;;;;;5065876;28;20225;-77
2021/05/06 02:22:29;;;;;;;14.63;9.57;;;6.00;99.90;;;;;;5064677;28;20223;-78
2021/05/06 02:25:14;;;;;;;13.70;10.03;;;6.00;99.90;;;;;;5064144;28;20213;-78
2021/05/06 02:28:00;;;;;;;14.60;10.10;;;6.00;99.90;;;;;;5062477;28;20763;-78
2021/05/06 02:30:45;;;;;;;15.60;11.13;;;6.00;99.90;;;;;;5068061;28;20258;-77
2021/05/06 02:33:30;;;;;;;17.13;10.80;;;6.00;99.90;;;;;;5057595;28;20202;-77
2021/05/06 02:36:15;;;;;;;16.00;11.50;;;6.10;99.90;;;;;;5053993;28;20223;-77
2021/05/06 02:39:00;;;;;;;15.70;11.93;;;6.10;99.90;;;;;;5068621;28;20745;-78
2021/05/06 02:41:45;;;;;;;16.23;12.00;;;6.00;99.90;;;;;;5063168;28;20730;-78
2021/05/06 02:44:33;;;;;;;18.30;12.67;;;6.10;99.90;;;;;;5059280;28;20285;-78
2021/05/06 02:47:18;;;;;;;16.20;12.60;;;6.10;99.90;;;;;;5069131;28;20221;-78
2021/05/06 02:50:04;;;;;;;17.03;13.13;;;6.10;99.90;;;;;;5067360;28;20214;-78
2021/05/06 02:52:53;;;;;;;17.43;13.50;;;6.10;99.90;;;;;;5070898;28;20202;-78
2021/05/06 02:55:42;;;;;;;16.67;12.17;;;6.10;99.90;;;;;;5069978;28;20210;-78
2021/05/06 02:58:43;;;;;;;17.27;12.93;;;6.10;99.90;;;;;;5070011;28;20245;-78
2021/05/06 03:04:33;;;;;;;17.10;13.13;;;6.10;99.90;;;;;;5063468;28;20253;-78
2021/05/06 03:07:21;;;;;;;16.17;12.50;;;6.00;99.90;;;;;;5069744;28;20214;-77
2021/05/06 03:10:15;;;;;;;14.27;10.13;;;6.00;99.90;;;;;;5058484;28;20287;-77
2021/05/06 03:25:14;;;;;;;13.53;10.40;;;5.60;99.90;;;;;;5066401;28;20580;-78
2021/05/06 03:28:03;;;;;;;13.77;9.67;;;5.40;99.90;;;;;;5070741;28;20705;-78
2021/05/06 03:31:12;;;;;;;13.43;9.60;;;5.40;99.90;;;;;;5062062;28;20243;-78
2021/05/06 03:43:26;;;;;;;12.37;9.30;;;5.00;99.90;;;;;;5066185;28;20702;-78
2021/05/06 03:46:42;;;;;;;14.80;10.70;;;4.90;99.90;;;;;;5049137;28;20207;-78
2021/05/06 03:50:01;;;;;;;15.80;11.50;;;4.80;99.90;;;;;;5065713;28;20211;-78
2021/05/06 04:14:54;;;;;;;36.90;23.70;;;4.40;99.90;;;;;;5060268;28;20273;-76
2021/05/06 04:17:52;;;;;;;35.97;24.33;;;4.50;99.90;;;;;;5063279;28;20203;-79
2021/05/06 04:27:03;;;;;;;46.33;28.43;;;4.70;99.90;;;;;;5057584;28;20203;-79
2021/05/06 04:35:52;;;;;;;51.50;30.13;;;4.90;99.90;;;;;;5093273;28;20198;-79
2021/05/06 04:38:37;;;;;;;48.80;30.43;;;5.00;99.90;;;;;;5086509;28;20218;-78
2021/05/06 04:41:35;;;;;;;56.47;33.57;;;5.00;99.90;;;;;;5074811;28;20226;-78
2021/05/06 04:54:02;;;;;;;55.83;33.70;;;5.20;99.90;;;;;;5067059;28;20198;-81
2021/05/06 04:56:56;;;;;;;51.10;32.13;;;5.20;99.90;;;;;;5067885;28;20202;-78
2021/05/06 05:05:56;;;;;;;45.67;30.27;;;5.30;99.90;;;;;;5038573;28;20279;-77
2021/05/06 05:08:45;;;;;;;52.03;34.73;;;5.40;99.90;;;;;;5069703;28;20678;-78
2021/05/06 05:11:37;;;;;;;55.33;35.07;;;5.40;99.90;;;;;;5070253;28;20717;-77
2021/05/06 05:14:37;;;;;;;58.90;38.03;;;5.40;99.90;;;;;;5069981;28;20190;-79
2021/05/06 05:20:37;;;;;;;47.43;32.07;;;5.40;99.90;;;;;;5064845;28;20348;-80
2021/05/06 05:23:34;;;;;;;48.67;31.30;;;5.50;99.90;;;;;;5072073;28;20243;-77
2021/05/06 05:26:19;;;;;;;50.43;31.33;;;5.50;99.90;;;;;;5072259;28;20190;-78
2021/05/06 05:29:04;;;;;;;45.17;28.67;;;5.50;99.90;;;;;;5057658;28;20207;-78
2021/05/06 05:31:49;;;;;;;39.07;25.67;;;5.50;99.90;;;;;;5065838;28;20272;-77
2021/05/06 05:34:38;;;;;;;47.17;31.13;;;5.60;99.90;;;;;;5065805;28;20226;-77
2021/05/06 05:37:25;;;;;;;46.93;30.70;;;5.60;99.90;;;;;;5068755;28;20294;-80
2021/05/06 07:07:30;;;;;;;32.67;22.73;;;6.90;99.90;;;;;;4959831;28;20240;-77
2021/05/06 07:10:15;;;;;;;28.80;22.43;;;7.00;99.90;;;;;;4973372;28;20717;-77
2021/05/06 07:13:00;;;;;;;33.27;26.30;;;7.10;99.90;;;;;;4967817;28;20313;-77
2021/05/06 07:15:46;;;;;;;33.97;24.93;;;7.20;99.90;;;;;;4965563;28;20240;-77
2021/05/06 07:18:37;;;;;;;28.13;22.50;;;7.30;99.90;;;;;;4982891;28;20229;-91
2021/05/06 07:21:25;;;;;;;23.57;19.30;;;7.50;99.90;;;;;;4992171;28;20288;-90
2021/05/06 07:24:18;;;;;;;21.37;17.30;;;7.60;99.90;;;;;;4990920;28;20590;-90
2021/05/06 07:27:04;;;;;;;22.83;17.33;;;7.80;99.90;;;;;;4972921;28;20209;-92
2021/05/06 07:29:49;;;;;;;20.60;16.60;;;7.90;99.90;;;;;;4972191;28;20284;-90
2021/05/06 07:32:34;;;;;;;18.73;15.20;;;8.00;99.90;;;;;;4967471;28;20564;-89
2021/05/06 07:35:19;;;;;;;20.33;12.67;;;8.00;99.90;;;;;;4967742;28;20228;-91
2021/05/06 07:38:08;;;;;;;15.27;12.37;;;8.30;99.90;;;;;;4967211;28;20702;-91
2021/05/06 07:40:56;;;;;;;18.23;12.80;;;8.40;99.90;;;;;;4970445;28;20230;-90
2021/05/06 07:43:42;;;;;;;20.40;14.93;;;8.50;99.90;;;;;;5011224;23;20248;-80
2021/05/06 07:46:28;;;;;;;23.20;14.40;;;8.60;99.90;;;;;;5002715;28;20231;-80
2021/05/06 07:49:13;;;;;;;23.57;14.23;;;8.70;99.90;;;;;;5007879;28;20215;-80
2021/05/06 07:51:57;;;;;;;18.13;14.00;;;8.80;99.90;;;;;;5007581;28;20224;-80
2021/05/06 07:54:42;;;;;;;15.27;10.17;;;8.90;99.90;;;;;;5006130;28;21827;-80
2021/05/06 07:57:28;;;;;;;19.47;12.40;;;9.10;99.90;;;;;;5010461;28;20236;-80
2021/05/06 08:00:18;;;;;;;14.83;10.67;;;9.30;99.90;;;;;;5007712;28;20703;-80
2021/05/06 08:03:06;;;;;;;13.37;10.17;;;9.50;99.90;;;;;;5007920;28;20208;-80
2021/05/06 08:05:56;;;;;;;13.93;10.33;;;9.60;99.90;;;;;;5011172;28;20200;-81
2021/05/06 08:08:41;;;;;;;17.33;11.40;;;9.80;99.90;;;;;;5003517;28;20208;-80
2021/05/06 08:11:26;;;;;;;14.83;10.43;;;10.00;99.90;;;;;;5013514;28;20275;-81
2021/05/06 08:14:11;;;;;;;18.73;9.73;;;10.10;99.90;;;;;;5013838;28;20261;-83
2021/05/06 08:16:57;;;;;;;12.87;8.50;;;10.20;99.90;;;;;;5008678;28;20236;-80
2021/05/06 08:19:42;;;;;;;13.17;8.20;;;10.40;99.90;;;;;;5013880;28;20262;-80
2021/05/06 08:22:27;;;;;;;11.33;9.17;;;10.50;99.90;;;;;;5009161;28;20213;-81
2021/05/06 08:25:14;;;;;;;14.30;9.80;;;10.60;99.90;;;;;;5012180;28;20212;-79
2021/05/06 08:27:59;;;;;;;14.43;9.67;;;10.70;99.90;;;;;;5013308;28;20251;-80
2021/05/06 08:30:45;;;;;;;12.17;8.93;;;10.90;99.90;;;;;;5015056;28;20200;-80
2021/05/06 08:33:31;;;;;;;11.40;9.27;;;10.90;99.90;;;;;;5007582;28;20774;-80
2021/05/06 08:36:15;;;;;;;13.50;10.07;;;11.00;99.90;;;;;;5009679;28;20433;-79
2021/05/06 08:39:00;;;;;;;12.43;8.87;;;11.10;99.90;;;;;;5008547;28;20208;-80
2021/05/06 08:41:45;;;;;;;11.60;8.63;;;11.10;99.90;;;;;;5007085;28;20211;-80
2021/05/06 08:44:32;;;;;;;11.90;8.80;;;11.10;99.90;;;;;;5007215;28;20723;-79
2021/05/06 08:47:20;;;;;;;12.00;9.30;;;11.20;99.90;;;;;;4998527;28;20256;-80
2021/05/06 08:50:06;;;;;;;11.40;9.60;;;11.20;99.90;;;;;;5001085;28;20601;-80
2021/05/06 08:52:52;;;;;;;19.60;11.10;;;11.30;99.90;;;;;;5009745;28;20287;-80
2021/05/06 08:55:38;;;;;;;13.70;10.33;;;11.30;99.90;;;;;;4997425;28;20256;-80
2021/05/06 08:58:23;;;;;;;14.70;10.23;;;11.40;99.90;;;;;;5000790;28;20211;-80
2021/05/06 09:01:08;;;;;;;14.00;9.33;;;11.40;99.90;;;;;;5011435;28;20208;-80
2021/05/06 09:03:53;;;;;;;13.60;10.57;;;11.50;99.90;;;;;;5016515;28;20248;-80
2021/05/06 09:06:52;;;;;;;13.03;9.93;;;11.50;99.90;;;;;;5013550;28;20784;-81
2021/05/06 09:09:43;;;;;;;13.87;11.17;;;11.60;99.90;;;;;;5008485;28;20618;-80
2021/05/06 09:12:40;;;;;;;14.73;9.90;;;11.50;99.90;;;;;;5012430;28;20618;-80
2021/05/06 09:15:26;;;;;;;12.40;9.20;;;11.50;99.90;;;;;;5013616;28;20199;-81
2021/05/06 09:18:37;;;;;;;13.53;10.20;;;11.60;99.90;;;;;;5011868;28;20235;-81
2021/05/06 09:21:30;;;;;;;14.80;9.23;;;11.70;99.90;;;;;;5007331;28;20780;-82
2021/05/06 09:24:20;;;;;;;12.90;9.47;;;11.80;99.90;;;;;;5002228;28;20220;-81
2021/05/06 09:27:05;;;;;;;12.80;8.60;;;11.90;99.90;;;;;;5001471;28;20743;-81
2021/05/06 09:29:50;;;;;;;12.87;9.20;;;12.00;99.90;;;;;;5005036;28;20523;-81
2021/05/06 09:32:35;;;;;;;14.03;10.00;;;12.00;99.90;;;;;;5000985;28;20616;-80
2021/05/06 09:35:20;;;;;;;13.10;8.73;;;12.10;99.90;;;;;;5002291;28;20288;-81
2021/05/06 09:38:05;;;;;;;13.60;10.07;;;12.20;99.90;;;;;;5000228;28;20296;-81
2021/05/06 09:40:51;;;;;;;13.57;10.37;;;12.30;99.90;;;;;;5007320;28;20583;-80
2021/05/06 09:43:40;;;;;;;12.60;10.13;;;12.30;99.90;;;;;;5002876;28;20243;-81
2021/05/06 09:46:29;;;;;;;19.63;11.17;;;12.30;99.90;;;;;;5009874;28;20947;-81
2021/05/06 09:49:15;;;;;;;12.73;10.33;;;12.30;99.90;;;;;;4996937;28;20682;-81
2021/05/06 09:52:00;;;;;;;14.30;10.80;;;12.20;99.90;;;;;;5010619;28;20240;-79
2021/05/06 09:54:48;;;;;;;15.70;10.57;;;12.20;99.90;;;;;;5005413;28;20284;-81
2021/05/06 09:57:35;;;;;;;13.33;9.33;;;12.20;99.90;;;;;;4997562;28;20594;-81
2021/05/06 10:00:21;;;;;;;16.30;8.47;;;12.10;99.90;;;;;;4999117;28;20211;-81
2021/05/06 10:03:14;;;;;;;16.70;8.33;;;12.10;99.90;;;;;;5005916;28;20315;-81
2021/05/06 10:06:10;;;;;;;11.57;8.77;;;12.30;99.90;;;;;;5003061;28;20208;-81
2021/05/06 10:09:03;;;;;;;10.67;8.20;;;12.50;99.90;;;;;;5017970;23;21097;-79
2021/05/06 10:11:49;;;;;;;10.10;8.40;;;12.70;99.90;;;;;;5055226;28;20230;-79
2021/05/06 10:14:33;;;;;;;11.07;8.43;;;13.00;99.90;;;;;;5055368;28;20214;-78
2021/05/06 10:17:19;;;;;;;11.63;7.73;;;13.30;99.90;;;;;;5037303;28;20206;-79
2021/05/06 10:20:05;;;;;;;12.43;8.73;;;13.50;99.90;;;;;;5048494;28;20207;-77
2021/05/06 10:22:51;;;;;;;10.87;9.03;;;13.70;99.90;;;;;;5052857;28;20223;-78
2021/05/06 10:25:36;;;;;;;10.80;9.00;;;13.80;99.90;;;;;;5052669;28;20204;-79
2021/05/06 10:28:25;;;;;;;10.90;8.40;;;13.90;99.90;;;;;;5051148;28;20201;-78
2021/05/06 10:31:10;;;;;;;12.17;8.73;;;14.00;99.90;;;;;;5045028;28;20205;-79
2021/05/06 10:33:55;;;;;;;12.57;8.03;;;13.90;99.90;;;;;;5037856;28;20290;-79
2021/05/06 10:36:41;;;;;;;15.57;8.43;;;13.80;99.90;;;;;;5027466;28;20890;-79
2021/05/06 10:39:36;;;;;;;15.17;10.70;;;13.60;99.90;;;;;;5031881;28;20225;-79
2021/05/06 10:42:32;;;;;;;14.57;10.83;;;13.40;99.90;;;;;;5030824;28;20661;-78
2021/05/06 10:45:34;;;;;;;11.33;10.13;;;13.30;99.90;;;;;;5038312;28;20214;-79
2021/05/06 10:48:19;;;;;;;8.13;7.10;;;13.00;99.90;;;;;;5026084;28;20203;-79
2021/05/06 10:51:26;;;;;;;7.30;5.87;;;12.70;99.90;;;;;;5029032;28;20243;-79
2021/05/06 10:54:25;;;;;;;6.57;5.33;;;12.40;99.90;;;;;;5046300;28;20207;-79
2021/05/06 10:57:32;;;;;;;7.03;5.97;;;12.10;99.90;;;;;;5037965;28;20206;-79
2021/05/06 11:00:23;;;;;;;9.47;7.83;;;11.80;99.90;;;;;;5035350;28;20306;-78
2021/05/06 11:03:25;;;;;;;9.87;7.73;;;11.50;99.90;;;;;;5042511;28;20214;-79
2021/05/06 11:06:34;;;;;;;9.93;7.30;;;11.30;99.90;;;;;;5043331;28;20207;-78
2021/05/06 11:09:57;;;;;;;11.20;8.50;;;11.00;99.90;;;;;;5050146;28;20234;-78
2021/05/06 11:12:55;;;;;;;13.73;9.70;;;10.70;99.90;;;;;;5040267;28;20227;-78
2021/05/06 11:15:41;;;;;;;14.80;11.00;;;10.60;99.90;;;;;;5044910;28;20246;-78
2021/05/06 11:18:42;;;;;;;13.10;10.87;;;10.50;99.90;;;;;;5024870;28;20210;-78
2021/05/06 11:21:40;;;;;;;12.53;10.17;;;10.60;99.90;;;;;;5053373;28;20218;-78
2021/05/06 11:24:27;;;;;;;13.30;10.23;;;10.60;99.90;;;;;;5049257;28;20214;-79
2021/05/06 11:27:13;;;;;;;14.63;12.07;;;10.70;99.90;;;;;;5043729;28;20846;-79
2021/05/06 11:30:30;;;;;;;12.60;11.17;;;10.80;99.90;;;;;;5039764;28;20354;-79
2021/05/06 11:33:25;;;;;;;11.43;9.70;;;11.10;99.90;;;;;;5053927;28;20705;-78
2021/05/06 11:36:18;;;;;;;12.30;10.83;;;11.40;99.90;;;;;;5032507;28;20203;-79
2021/05/06 11:39:02;;;;;;;10.43;9.20;;;11.90;99.90;;;;;;5023803;28;20286;-79
2021/05/06 11:41:47;;;;;;;11.80;8.90;;;12.50;99.90;;;;;;5031767;28;20200;-79
2021/05/06 11:44:32;;;;;;;9.77;8.77;;;13.20;99.90;;;;;;5023678;28;20572;-79
2021/05/06 11:47:26;;;;;;;11.90;10.40;;;14.00;99.90;;;;;;5032417;28;20263;-80
2021/05/06 11:50:25;;;;;;;10.10;9.00;;;14.80;99.90;;;;;;5028602;28;20233;-79
2021/05/06 11:53:15;;;;;;;10.73;8.63;;;15.60;99.90;;;;;;5033477;28;20662;-79
2021/05/06 11:56:10;;;;;;;9.73;8.70;;;16.50;99.90;;;;;;5018105;28;20235;-79
2021/05/06 11:58:55;;;;;;;10.07;7.53;;;17.10;99.90;;;;;;5030459;28;20246;-79
2021/05/06 12:01:40;;;;;;;8.80;7.90;;;17.60;99.90;;;;;;5024323;28;20213;-79
2021/05/06 12:04:26;;;;;;;10.63;8.33;;;17.90;99.90;;;;;;5027349;28;20192;-78
2021/05/06 12:07:13;;;;;;;9.40;8.40;;;18.10;99.90;;;;;;5048882;28;20204;-79
2021/05/06 12:10:09;;;;;;;12.10;9.00;;;18.10;99.90;;;;;;5028805;28;20271;-79
2021/05/06 12:13:01;;;;;;;9.97;8.10;;;18.20;99.90;;;;;;5050300;28;20275;-79
2021/05/06 12:15:46;;;;;;;9.93;8.97;;;18.30;99.90;;;;;;5023083;28;20220;-79
2021/05/06 12:18:31;;;;;;;9.67;7.43;;;18.40;99.90;;;;;;5021190;28;20732;-79
2021/05/06 12:21:16;;;;;;;8.43;7.30;;;18.60;99.90;;;;;;5041878;28;20206;-79
2021/05/06 12:24:01;;;;;;;7.60;6.80;;;19.00;99.90;;;;;;5041960;28;20261;-80
2021/05/06 12:26:47;;;;;;;7.43;6.60;;;19.30;99.90;;;;;;5037144;28;20250;-79
2021/05/06 12:29:31;;;;;;;7.23;6.23;;;19.60;95.20;;;;;;5057749;28;20235;-80
2021/05/06 12:32:18;;;;;;;7.47;6.77;;;19.80;94.80;;;;;;5057220;28;20266;-79
2021/05/06 12:35:03;;;;;;;6.27;5.67;;;20.00;92.50;;;;;;5049563;28;20267;-80
2021/05/06 12:37:52;;;;;;;7.63;6.83;;;20.20;91.90;;;;;;5036817;28;20687;-79
2021/05/06 12:40:37;;;;;;;6.47;5.70;;;20.40;87.20;;;;;;5020264;28;20252;-79
2021/05/06 12:43:28;;;;;;;5.10;4.60;;;20.60;90.10;;;;;;5041827;28;20236;-79
2021/05/06 12:46:13;;;;;;;5.30;4.80;;;20.80;91.00;;;;;;5040175;28;20242;-79
2021/05/06 12:49:01;;;;;;;5.83;4.70;;;21.10;88.60;;;;;;5037631;28;20259;-80
2021/05/06 12:51:48;;;;;;;5.60;5.10;;;21.30;90.20;;;;;;5029015;28;20209;-80
2021/05/06 12:54:34;;;;;;;5.40;4.57;;;21.40;87.70;;;;;;5033252;28;20858;-79
2021/05/06 12:57:19;;;;;;;5.37;4.87;;;21.50;89.10;;;;;;5040141;28;20213;-79
2021/05/06 13:00:19;;;;;;;4.57;4.17;;;21.60;87.50;;;;;;5025399;28;20221;-79
2021/05/06 13:03:06;;;;;;;5.53;4.90;;;21.60;86.90;;;;;;5037363;28;20206;-79
2021/05/06 13:05:51;;;;;;;5.43;4.93;;;21.60;82.70;;;;;;5039652;28;20289;-79
2021/05/06 13:08:36;;;;;;;5.63;4.50;;;21.60;84.30;;;;;;5032267;28;20209;-79
2021/05/06 13:11:22;;;;;;;5.00;4.33;;;21.50;83.10;;;;;;5034033;28;20203;-78
2021/05/06 13:14:07;;;;;;;5.10;4.60;;;21.30;83.80;;;;;;5038435;28;20743;-78
2021/05/06 13:16:52;;;;;;;5.73;4.67;;;21.10;84.20;;;;;;5029792;28;20530;-78
2021/05/06 13:19:37;;;;;;;5.27;4.77;;;20.80;84.10;;;;;;5032078;28;20632;-79
2021/05/06 13:22:22;;;;;;;6.17;5.57;;;20.50;84.90;;;;;;5026718;28;20599;-79
2021/05/06 13:25:08;;;;;;;9.80;8.10;;;20.20;87.10;;;;;;5039976;28;20225;-78
2021/05/06 13:27:52;;;;;;;7.70;6.90;;;19.90;86.90;;;;;;5041651;28;20588;-78
2021/05/06 13:30:38;;;;;;;7.47;6.67;;;19.50;89.50;;;;;;5054627;28;20320;-78
2021/05/06 13:33:24;;;;;;;8.40;7.10;;;19.10;90.90;;;;;;5049459;28;20333;-78
2021/05/06 13:36:10;;;;;;;7.73;6.67;;;18.70;92.40;;;;;;5023794;28;20204;-78
2021/05/06 13:38:57;;;;;;;7.17;6.47;;;18.20;93.40;;;;;;5022434;28;20231;-78
2021/05/06 13:41:44;;;;;;;6.90;6.20;;;17.70;95.00;;;;;;5036992;28;20742;-78
2021/05/06 13:44:30;;;;;;;7.93;7.13;;;17.20;96.90;;;;;;5035600;28;20209;-78
2021/05/06 13:47:15;;;;;;;7.93;7.13;;;16.80;97.80;;;;;;5029746;28;20857;-78
2021/05/06 13:50:00;;;;;;;9.67;7.63;;;16.50;98.20;;;;;;5023201;28;20226;-78
2021/05/06 13:52:46;;;;;;;8.60;7.70;;;16.10;99.00;;;;;;5035382;28;20249;-78
2021/05/06 13:55:31;;;;;;;8.90;8.00;;;15.80;98.60;;;;;;5029477;28;20260;-78
2021/05/06 13:58:15;;;;;;;9.27;7.87;;;15.50;99.90;;;;;;5035596;28;20238;-78
2021/05/06 14:01:02;;;;;;;10.40;8.87;;;15.20;99.90;;;;;;5026102;28;20213;-77
2021/05/06 14:03:47;;;;;;;12.10;8.70;;;14.90;99.90;;;;;;5031195;28;20318;-77
2021/05/06 14:06:33;;;;;;;11.63;8.60;;;14.60;99.90;;;;;;5035264;28;20287;-78
2021/05/06 14:09:18;;;;;;;13.20;9.07;;;14.30;99.90;;;;;;5029199;28;20253;-78
2021/05/06 14:12:04;;;;;;;12.13;9.70;;;14.00;99.90;;;;;;5028668;28;20224;-78
2021/05/06 14:14:49;;;;;;;10.23;8.80;;;13.80;99.90;;;;;;5039605;28;20216;-78
2021/05/06 14:17:34;;;;;;;10.17;8.73;;;13.50;99.90;;;;;;5023153;28;20209;-78
2021/05/06 14:20:20;;;;;;;12.17;10.10;;;13.40;99.90;;;;;;5033892;28;20250;-78
2021/05/06 14:23:06;;;;;;;11.73;10.40;;;13.20;99.90;;;;;;5036812;28;20220;-78
2021/05/06 14:25:51;;;;;;;13.70;10.67;;;13.10;99.90;;;;;;5019636;28;20203;-78
2021/05/06 14:28:36;;;;;;;11.73;10.50;;;13.10;99.90;;;;;;5025847;28;20749;-78
2021/05/06 14:31:21;;;;;;;14.47;10.47;;;13.10;99.90;;;;;;5054330;28;20258;-78
2021/05/06 14:34:06;;;;;;;12.83;10.97;;;13.10;99.90;;;;;;5036316;28;20725;-78
2021/05/06 14:36:51;;;;;;;14.07;11.07;;;13.10;99.90;;;;;;5023562;28;20204;-78
2021/05/06 14:39:36;;;;;;;12.07;10.17;;;13.10;99.90;;;;;;5034208;28;20231;-78
2021/05/06 14:42:21;;;;;;;12.73;10.90;;;13.20;99.90;;;;;;5022545;28;20231;-78
2021/05/06 14:45:08;;;;;;;12.37;10.70;;;13.30;99.90;;;;;;5030691;28;21099;-78
2021/05/06 14:47:53;;;;;;;11.70;10.07;;;13.40;99.90;;;;;;5034330;28;20264;-78
2021/05/06 14:50:38;;;;;;;12.00;10.10;;;13.60;99.90;;;;;;5025618;28;20224;-78
2021/05/06 14:53:23;;;;;;;12.27;9.73;;;13.90;99.90;;;;;;5016716;28;20236;-78
2021/05/06 14:56:09;;;;;;;11.00;9.80;;;14.10;99.90;;;;;;5029831;28;20315;-78
2021/05/06 14:58:54;;;;;;;10.67;9.40;;;14.30;99.90;;;;;;5034120;28;20280;-78
2021/05/06 15:01:38;;;;;;;9.97;8.70;;;14.50;99.90;;;;;;5038211;28;20201;-78
2021/05/06 15:04:23;;;;;;;9.27;8.27;;;14.70;99.90;;;;;;5053065;28;20217;-79
2021/05/06 15:07:08;;;;;;;10.33;9.13;;;14.80;99.90;;;;;;5020275;28;20211;-79
2021/05/06 15:09:53;;;;;;;9.83;8.83;;;15.00;99.90;;;;;;5019910;28;20261;-79
2021/05/06 15:12:38;;;;;;;12.20;9.80;;;15.10;99.90;;;;;;5032063;28;20229;-79
2021/05/06 15:15:24;;;;;;;9.93;8.67;;;15.10;99.90;;;;;;5036497;28;20210;-79
2021/05/06 15:18:08;;;;;;;10.07;8.57;;;15.20;99.90;;;;;;5035248;28;20206;-79
2021/05/06 15:20:55;;;;;;;10.53;8.93;;;15.30;99.90;;;;;;5029204;28;20294;-79
2021/05/06 15:23:40;;;;;;;10.87;9.13;;;15.40;99.90;;;;;;5037580;28;20212;-79
2021/05/06 15:26:26;;;;;;;10.60;9.50;;;15.40;99.90;;;;;;5015090;28;20209;-78
2021/05/06 15:29:12;;;;;;;11.93;9.60;;;15.40;99.90;;;;;;5014286;28;20250;-79
2021/05/06 15:31:56;;;;;;;11.37;10.17;;;15.50;99.90;;;;;;5034440;28;20250;-79
2021/05/06 15:34:41;;;;;;;9.77;8.77;;;15.50;99.90;;;;;;5027070;28;20215;-79
2021/05/06 15:37:27;;;;;;;11.23;9.30;;;15.60;99.90;;;;;;5015170;28;20240;-79
2021/05/06 15:40:15;;;;;;;10.20;8.97;;;15.70;99.90;;;;;;5008908;28;20666;-79
2021/05/06 15:43:00;;;;;;;12.07;9.83;;;15.70;99.90;;;;;;5002549;28;20195;-78
2021/05/06 15:45:47;;;;;;;11.40;9.73;;;15.70;99.90;;;;;;5014020;28;20219;-78
2021/05/06 15:48:32;;;;;;;11.13;9.30;;;15.70;99.90;;;;;;5006211;28;20204;-79
2021/05/06 15:51:16;;;;;;;10.60;8.73;;;15.70;99.90;;;;;;5013096;28;20229;-78
2021/05/06 15:54:04;;;;;;;11.90;8.83;;;15.70;99.90;;;;;;5003038;28;20752;-78
2021/05/06 15:56:49;;;;;;;11.70;8.73;;;15.60;99.90;;;;;;4998063;28;20570;-78
2021/05/06 15:59:36;;;;;;;10.80;9.07;;;15.60;99.90;;;;;;5010501;28;20265;-78
2021/05/06 16:02:23;;;;;;;11.77;9.37;;;15.60;99.90;;;;;;5007449;28;20694;-78
2021/05/06 16:05:14;;;;;;;9.80;8.67;;;15.60;99.90;;;;;;5001737;28;20212;-79
2021/05/06 16:07:59;;;;;;;9.43;8.53;;;15.60;99.90;;;;;;5016194;28;20585;-78
2021/05/06 16:10:44;;;;;;;9.50;8.43;;;15.70;99.90;;;;;;4998116;28;20246;-78
2021/05/06 16:13:32;;;;;;;10.03;8.90;;;15.70;99.90;;;;;;5001999;28;20222;-79
2021/05/06 16:16:18;;;;;;;10.53;9.20;;;15.70;99.90;;;;;;5013562;28;20255;-79
2021/05/06 16:19:04;;;;;;;9.90;8.70;;;15.70;99.90;;;;;;5001966;28;20254;-79
2021/05/06 16:21:49;;;;;;;10.57;8.37;;;15.60;99.90;;;;;;5011723;28;20214;-78
2021/05/06 16:24:33;;;;;;;13.07;8.63;;;15.60;99.90;;;;;;5007922;28;20225;-79
2021/05/06 16:27:18;;;;;;;12.07;8.67;;;15.60;99.90;;;;;;5005674;28;20235;-78
2021/05/06 16:30:04;;;;;;;10.33;8.97;;;15.60;99.90;;;;;;5028516;28;20272;-78
2021/05/06 16:32:50;;;;;;;13.60;11.83;;;15.60;99.90;;;;;;5025541;28;20233;-79
2021/05/06 16:35:39;;;;;;;11.47;9.37;;;15.50;99.90;;;;;;5017421;28;20208;-79
2021/05/06 16:38:25;;;;;;;8.97;7.57;;;15.50;99.90;;;;;;5006701;28;20217;-78
2021/05/06 16:41:11;;;;;;;9.87;8.37;;;15.40;99.90;;;;;;5003615;28;20283;-79
2021/05/06 16:44:02;;;;;;;9.77;8.57;;;15.40;99.90;;;;;;5019931;28;20199;-77
2021/05/06 16:46:47;;;;;;;11.90;8.43;;;15.30;99.90;;;;;;5020393;28;20203;-78
2021/05/06 16:49:33;;;;;;;9.07;7.87;;;15.20;99.90;;;;;;5015623;28;20241;-78
2021/05/06 16:52:19;;;;;;;9.43;8.27;;;15.20;99.90;;;;;;5014900;28;20214;-78
2021/05/06 16:55:05;;;;;;;10.27;8.60;;;15.00;99.90;;;;;;5007422;28;20266;-79
2021/05/06 16:57:50;;;;;;;10.53;8.57;;;14.90;99.90;;;;;;5007244;28;20269;-78
2021/05/06 17:00:35;;;;;;;9.87;8.87;;;14.80;99.90;;;;;;5008427;28;20296;-78
2021/05/06 17:03:20;;;;;;;11.63;7.80;;;14.70;99.90;;;;;;5012351;28;20200;-78
2021/05/06 17:06:05;;;;;;;11.30;8.50;;;14.60;99.90;;;;;;5012481;28;20198;-79
2021/05/06 17:08:50;;;;;;;12.83;8.77;;;14.50;99.90;;;;;;5011341;28;20229;-79
2021/05/06 17:11:36;;;;;;;10.23;9.13;;;14.50;99.90;;;;;;5026906;28;20237;-78
2021/05/06 17:14:21;;;;;;;10.00;8.70;;;14.40;99.90;;;;;;5038096;28;20193;-78
2021/05/06 17:17:06;;;;;;;10.43;9.00;;;14.20;99.90;;;;;;5033761;28;20268;-78
2021/05/06 17:19:51;;;;;;;10.03;8.63;;;14.10;99.90;;;;;;5035279;28;20256;-79
2021/05/06 17:22:37;;;;;;;10.03;8.97;;;14.00;99.90;;;;;;5036210;28;20275;-78
2021/05/06 17:25:23;;;;;;;10.73;8.60;;;13.90;99.90;;;;;;5026617;28;20216;-78
2021/05/06 17:28:08;;;;;;;11.53;9.03;;;13.80;99.90;;;;;;5024808;28;20201;-79
2021/05/06 17:30:55;;;;;;;10.20;8.60;;;13.70;99.90;;;;;;5024127;28;20236;-79
2021/05/06 17:33:40;;;;;;;10.33;9.20;;;13.60;99.90;;;;;;5016480;28;20727;-79
2021/05/06 17:36:26;;;;;;;14.83;10.17;;;13.50;99.90;;;;;;5013524;28;20269;-79
2021/05/06 17:39:11;;;;;;;14.57;10.33;;;13.40;99.90;;;;;;5010513;28;20380;-78
2021/05/06 17:41:57;;;;;;;14.80;11.93;;;13.30;99.90;;;;;;5014507;28;20752;-77
2021/05/06 17:44:42;;;;;;;17.40;14.40;;;13.20;99.90;;;;;;5008924;28;20214;-79
2021/05/06 17:47:26;;;;;;;21.67;16.70;;;13.20;99.90;;;;;;5012341;28;20208;-78
2021/05/06 17:50:12;;;;;;;12.07;10.00;;;13.10;99.90;;;;;;5013663;28;20744;-78
2021/05/06 17:52:57;;;;;;;13.20;10.53;;;12.90;99.90;;;;;;5010233;28;20220;-77
2021/05/06 17:55:42;;;;;;;8.27;5.77;;;12.90;99.90;;;;;;5016662;28;20204;-76
2021/05/06 17:58:28;;;;;;;7.57;5.57;;;12.80;99.90;;;;;;5031729;28;20192;-76
2021/05/06 18:01:17;;;;;;;8.60;5.63;;;12.70;99.90;;;;;;5010233;28;20255;-77